createdAt,value
2023-05-06T00:04:32.567Z,14.40
2023-05-06T00:09:34.780Z,9.20
2023-05-06T00:14:36.818Z,10.70
2023-05-06T00:19:38.793Z,12.30
2023-05-06T00:24:40.756Z,14.30
2023-05-06T00:29:42.427Z,8.40
2023-05-06T00:34:44.246Z,11.60
2023-05-06T00:39:45.858Z,11.80
2023-05-06T00:44:47.832Z,10.90
2023-05-06T00:49:51.395Z,10.90
2023-05-06T00:54:54.092Z,12.90
2023-05-06T00:59:55.739Z,8.50
2023-05-06T01:04:58.668Z,9.50
2023-05-06T01:10:24.447Z,8.40
2023-05-06T01:15:33.353Z,8.80
2023-05-06T01:20:38.337Z,9.50
2023-05-06T01:25:41.034Z,9.80
2023-05-06T01:30:59.606Z,7.50
2023-05-06T01:36:15.900Z,8.20
2023-05-06T01:41:19.468Z,7.60
2023-05-06T01:46:24.291Z,8.90
2023-05-06T01:51:26.062Z,10.90
2023-05-06T01:56:30.311Z,9.10
2023-05-06T02:01:32.147Z,8.40
2023-05-06T02:06:34.746Z,6.00
2023-05-06T02:11:36.817Z,7.50
2023-05-06T02:16:41.382Z,12.20
2023-05-06T02:21:43.087Z,8.60
2023-05-06T02:26:44.886Z,8.60
2023-05-06T02:31:46.609Z,9.60
2023-05-06T02:36:50.371Z,9.10
2023-05-06T02:41:51.996Z,6.40
2023-05-06T02:46:53.892Z,7.60
2023-05-06T02:51:55.800Z,7.70
2023-05-06T02:56:57.487Z,6.50
2023-05-06T03:01:59.156Z,6.60
2023-05-06T03:07:00.845Z,7.60
2023-05-06T03:12:02.900Z,9.40
2023-05-06T03:17:04.869Z,9.80
2023-05-06T03:22:07.714Z,8.70
2023-05-06T03:27:10.476Z,8.50
2023-05-06T03:32:12.849Z,10.40
2023-05-06T03:37:17.210Z,7.70
2023-05-06T03:42:23.085Z,7.20
2023-05-06T03:47:25.623Z,7.70
2023-05-06T03:52:27.872Z,6.50
2023-05-06T03:57:30.019Z,11.00
2023-05-06T04:02:35.182Z,7.90
2023-05-06T04:07:37.799Z,10.60
2023-05-06T04:12:39.722Z,6.10
2023-05-06T04:17:42.122Z,6.60
2023-05-06T04:22:44.359Z,10.00
2023-05-06T04:27:46.938Z,8.30
2023-05-06T04:32:48.885Z,7.00
2023-05-06T04:37:51.300Z,5.40
2023-05-06T04:42:58.580Z,11.50
2023-05-06T04:48:01.394Z,11.30
2023-05-06T04:53:03.864Z,7.80
2023-05-06T04:58:05.627Z,8.10
2023-05-06T05:03:07.633Z,8.10
2023-05-06T05:08:10.076Z,6.30
2023-05-06T05:13:13.898Z,12.90
2023-05-06T05:23:18.577Z,9.60
2023-05-06T05:28:20.535Z,10.00
2023-05-06T05:33:22.542Z,6.70
2023-05-06T05:38:25.258Z,7.10
2023-05-06T05:43:27.622Z,12.50
2023-05-06T05:48:31.021Z,14.80
2023-05-06T05:58:35.079Z,6.70
2023-05-06T06:03:38.288Z,9.10
2023-05-06T06:08:40.836Z,10.40
2023-05-06T06:13:43.313Z,11.40
2023-05-06T06:18:45.366Z,9.20
2023-05-06T06:23:47.196Z,10.80
2023-05-06T06:28:49.353Z,9.50
2023-05-06T06:33:51.361Z,8.50
2023-05-06T06:38:53.108Z,11.40
2023-05-06T06:43:54.788Z,8.60
2023-05-06T06:49:03.547Z,17.90
2023-05-06T06:54:05.275Z,10.70
2023-05-06T06:59:07.699Z,12.40
2023-05-06T07:04:09.812Z,9.00
2023-05-06T07:09:12.050Z,10.30
2023-05-06T07:14:13.871Z,9.90
2023-05-06T07:19:15.593Z,11.50
2023-05-06T07:24:17.364Z,12.10
2023-05-06T07:29:19.068Z,10.80
2023-05-06T07:34:20.788Z,8.70
2023-05-06T07:39:22.628Z,8.70
2023-05-06T07:44:24.294Z,8.00
2023-05-06T07:49:28.737Z,12.50
2023-05-06T07:54:31.795Z,10.70
2023-05-06T07:59:33.708Z,6.80
2023-05-06T08:04:36.141Z,9.20
2023-05-06T08:09:38.007Z,9.40
2023-05-06T08:14:39.657Z,9.50
2023-05-06T08:19:41.259Z,9.60
2023-05-06T08:24:43.211Z,10.60
2023-05-06T08:29:44.876Z,11.00
2023-05-06T08:34:46.785Z,10.20
2023-05-06T08:39:48.488Z,15.00
2023-05-06T08:44:52.293Z,8.80
2023-05-06T08:49:53.979Z,6.70
2023-05-06T08:55:01.358Z,8.00
2023-05-06T09:00:04.930Z,9.80
2023-05-06T09:10:14.389Z,16.00
2023-05-06T09:15:16.494Z,17.10
2023-05-06T09:20:18.159Z,16.50
2023-05-06T09:25:20.462Z,16.40
2023-05-06T09:30:22.153Z,22.20
2023-05-06T09:35:28.999Z,17.80
2023-05-06T09:40:31.711Z,14.70
2023-05-06T09:45:33.577Z,18.80
2023-05-06T09:50:36.583Z,13.80
2023-05-06T09:55:39.735Z,17.90
2023-05-06T10:00:42.304Z,18.50
2023-05-06T10:05:46.145Z,22.30
2023-05-06T10:10:49.899Z,15.80
2023-05-06T10:15:52.643Z,13.50
2023-05-06T10:20:55.516Z,15.40
2023-05-06T10:26:01.200Z,16.30
2023-05-06T10:31:05.169Z,20.70
2023-05-06T10:36:22.576Z,18.80
2023-05-06T10:41:27.815Z,14.80
2023-05-06T10:46:30.097Z,14.40
2023-05-06T10:51:31.725Z,20.90
2023-05-06T10:56:35.860Z,12.10
2023-05-06T11:01:40.069Z,18.60
2023-05-06T11:06:47.738Z,14.50
2023-05-06T11:12:03.918Z,18.60
2023-05-06T11:17:28.486Z,21.90
2023-05-06T11:22:40.912Z,25.60
2023-05-06T11:27:42.734Z,17.40
2023-05-06T11:32:46.851Z,22.50
2023-05-06T11:37:48.645Z,22.90
2023-05-06T11:42:50.407Z,22.10
2023-05-06T11:47:54.605Z,23.80
2023-05-06T11:52:56.355Z,23.00
2023-05-06T11:57:58.229Z,22.90
2023-05-06T12:02:59.918Z,24.20
2023-05-06T12:08:01.839Z,27.90
2023-05-06T12:13:05.816Z,25.40
2023-05-06T12:18:07.728Z,33.50
2023-05-06T12:23:14.716Z,26.60
2023-05-06T12:28:22.767Z,22.00
2023-05-06T12:33:24.400Z,22.20
2023-05-06T12:38:26.057Z,24.60
2023-05-06T12:43:32.849Z,23.40
2023-05-06T12:48:34.849Z,22.20
2023-05-06T12:53:36.600Z,26.40
2023-05-06T12:58:39.813Z,30.70
2023-05-06T13:03:41.692Z,22.60
2023-05-06T13:08:43.877Z,29.10
2023-05-06T13:13:45.550Z,30.50
2023-05-06T13:18:47.222Z,30.50
2023-05-06T13:23:49.425Z,32.20
2023-05-06T13:28:51.624Z,30.90
2023-05-06T13:33:53.262Z,27.30
2023-05-06T13:38:55.135Z,22.80
2023-05-06T13:43:56.870Z,25.90
2023-05-06T13:48:58.637Z,19.30
2023-05-06T13:54:01.256Z,22.90
2023-05-06T13:59:02.903Z,17.70
2023-05-06T14:04:04.777Z,20.90
2023-05-06T14:09:06.776Z,23.00
2023-05-06T14:14:08.440Z,17.50
2023-05-06T14:19:10.272Z,19.60
2023-05-06T14:24:12.579Z,18.50
2023-05-06T14:29:14.273Z,16.60
2023-05-06T14:34:15.959Z,18.10
2023-05-06T14:39:17.668Z,22.90
2023-05-06T14:44:19.316Z,20.50
2023-05-06T14:49:21.305Z,21.00
2023-05-06T14:54:23.067Z,17.30
2023-05-06T14:59:24.687Z,18.80
2023-05-06T15:04:27.424Z,16.40
2023-05-06T15:09:29.197Z,17.60
2023-05-06T15:14:30.986Z,16.60
2023-05-06T15:19:33.480Z,20.50
2023-05-06T15:24:35.984Z,18.90
2023-05-06T15:29:39.301Z,14.70
2023-05-06T15:34:40.962Z,22.00
2023-05-06T15:39:42.849Z,18.70
2023-05-06T15:44:46.722Z,17.00
2023-05-06T15:49:54.795Z,23.40
2023-05-06T15:55:13.511Z,22.50
2023-05-06T16:00:16.558Z,15.80
2023-05-06T16:05:18.243Z,19.10
2023-05-06T16:10:20.062Z,17.10
2023-05-06T16:15:21.771Z,18.20
2023-05-06T16:20:23.467Z,21.90
2023-05-06T16:25:29.178Z,21.90
2023-05-06T16:30:30.914Z,18.90
2023-05-06T16:35:32.966Z,17.90
2023-05-06T16:40:41.548Z,19.00
2023-05-06T16:45:45.270Z,19.60
2023-05-06T16:50:47.087Z,19.70
2023-05-06T16:55:49.575Z,19.90
2023-05-06T17:00:54.047Z,19.80
2023-05-06T17:05:55.717Z,16.10
2023-05-06T17:10:57.490Z,11.20
2023-05-06T17:15:59.305Z,13.20
2023-05-06T17:21:02.115Z,10.40
2023-05-06T17:26:09.657Z,17.30
2023-05-06T17:31:12.213Z,19.10
2023-05-06T17:36:16.716Z,15.10
2023-05-06T17:41:18.389Z,13.20
2023-05-06T17:46:20.316Z,14.90
2023-05-06T17:51:22.271Z,16.30
2023-05-06T17:56:23.901Z,12.50
2023-05-06T18:01:25.545Z,15.70
2023-05-06T18:06:27.881Z,15.70
2023-05-06T18:11:29.647Z,13.40
2023-05-06T18:16:31.689Z,21.50
2023-05-06T18:21:35.012Z,17.70
2023-05-06T18:26:44.862Z,21.00
2023-05-06T18:31:47.816Z,21.30
2023-05-06T18:36:49.934Z,18.70
2023-05-06T18:41:52.782Z,20.00
2023-05-06T18:46:54.483Z,21.80
2023-05-06T18:51:56.169Z,18.10
2023-05-06T18:56:58.656Z,18.10
2023-05-06T19:02:01.919Z,19.30
2023-05-06T19:07:04.369Z,19.10
2023-05-06T19:12:06.152Z,22.80
2023-05-06T19:17:07.885Z,20.20
2023-05-06T19:22:09.521Z,22.70
2023-05-06T19:27:11.206Z,22.90
2023-05-06T19:32:13.070Z,23.70
2023-05-06T19:37:14.845Z,16.00
2023-05-06T19:42:16.567Z,17.50
2023-05-06T19:47:19.436Z,19.70
2023-05-06T19:52:21.240Z,15.60
2023-05-06T19:57:23.364Z,10.90
2023-05-06T20:02:25.388Z,12.00
2023-05-06T20:07:27.217Z,8.40
2023-05-06T20:12:30.155Z,15.70
2023-05-06T20:17:31.922Z,16.20
2023-05-06T20:22:33.580Z,21.50
2023-05-06T20:27:35.279Z,12.80
2023-05-06T20:32:40.394Z,14.00
2023-05-06T20:37:42.530Z,18.00
2023-05-06T20:42:44.169Z,16.40
2023-05-06T20:47:45.935Z,14.50
2023-05-06T20:52:47.754Z,21.10
2023-05-06T20:57:49.953Z,11.70
2023-05-06T21:02:51.895Z,13.90
2023-05-06T21:07:55.355Z,15.60
2023-05-06T21:13:01.432Z,16.90
2023-05-06T21:18:03.439Z,17.40
2023-05-06T21:23:05.283Z,14.60
2023-05-06T21:28:07.033Z,17.30
2023-05-06T21:33:11.363Z,14.70
2023-05-06T21:38:13.317Z,15.80
2023-05-06T21:43:17.978Z,17.90
2023-05-06T21:48:37.771Z,20.20
2023-05-06T21:53:39.409Z,17.40
2023-05-06T21:58:41.123Z,16.60
2023-05-06T22:03:45.318Z,15.00
2023-05-06T22:08:47.212Z,17.90
2023-05-06T22:13:49.035Z,20.40
2023-05-06T22:18:51.866Z,18.80
2023-05-06T22:23:53.598Z,16.30
2023-05-06T22:28:56.253Z,15.90
2023-05-06T22:34:03.554Z,17.00
2023-05-06T22:39:05.606Z,19.70
2023-05-06T22:44:07.468Z,17.30
2023-05-06T22:49:09.876Z,19.40
2023-05-06T22:54:11.724Z,12.70
2023-05-06T22:59:13.701Z,15.50
2023-05-06T23:04:15.874Z,16.80
2023-05-06T23:09:18.534Z,16.60
2023-05-06T23:14:26.918Z,14.30
2023-05-06T23:19:28.602Z,13.80
2023-05-06T23:24:30.279Z,10.60
2023-05-06T23:29:32.054Z,11.70
2023-05-06T23:34:37.079Z,11.90
2023-05-06T23:39:39.208Z,16.70
2023-05-06T23:44:41.611Z,18.20
2023-05-06T23:49:51.321Z,15.50
2023-05-06T23:54:52.989Z,13.40
2023-05-06T23:59:54.678Z,12.20
